Eminence, MO (65466)

3:05 PM CDT on May 24, 2015 (GMT -0500)
RAWS | | Change Station
CLOSE
Current Station
Personal Weather Station
Location: Ellington, MO
Elevation: 1399 ft
Nearby Weather Stations
Active Advisory: Tornado Watch Active Notice: Public Information Statement

Elev 1399 ft 37.18 °N, 91.12 °W | Updated 30 minutes ago

Mostly Cloudy
Mostly Cloudy
81 °F
Feels Like 84 °F
N
3
Wind Variable Wind from SE
Gusts 12.0 mph

Today
High -- | Low -- °F
--% Chance of Precip.
Yesterday
High -- | Low -- °F
Precip. -- in
5:51 AM 8:14 PM
Waxing Crescent, 42% visible
Pressure 29.94 in
Visibility 5.0 miles
Clouds Few 6000 ft
Scattered Clouds 7500 ft
Mostly Cloudy 9500 ft
Heat Index 84 °F
Dew Point 68 °F
Humidity 64%
Rainfall in
Snow Depth Not available.
UV 5 out of 12
Pollen 1.00 out of 12
Air Quality Not available.
Flu Activity Sporadic
METAR KUNO 241953Z AUTO 16011KT 5SM RA FEW060 SCT075 BKN095 23/19 A2997 RMK AO2 RAB12E24B48 SLP137 P0007 T02330194

More Conditions Fewer Conditions

Pressure 29.94 in
Visibility 5.0 miles
Clouds Few 6000 ft
Scattered Clouds 7500 ft
Mostly Cloudy 9500 ft
Heat Index 84 °F
Dew Point 68 °F
Humidity 64%
Rainfall in
Snow Depth Not available.
UV 5 out of 12
Pollen 1.00 out of 12
Air Quality Not available.
Flu Activity Sporadic
METAR KUNO 241953Z AUTO 16011KT 5SM RA FEW060 SCT075 BKN095 23/19 A2997 RMK AO2 RAB12E24B48 SLP137 P0007 T02330194

More Conditions Fewer Conditions

10-Day Weather Forecast

Almanac

Astronomy

May. 24, 2015 Rise Set
Actual Time
Civil Twilight
Nautical Twilight
Astronomical Twilight
Moon
Length of Visible Light
Length of Day
Tomorrow will be .
, % of the Moon is Illuminated

Today's Extremes

State Highs State Lows

Community

WunderPhotos

Upload Photos

1,823,850 photos uploaded!

WunderBlogs® & News

Nearby

Air Quality

  Air Quality AQ Index Pollutant
Not available.

Snow Depth

Station Depth Elevation

Earthquake Activity

City Distance Mag. Time & Date
Minimum magnitude displayed is 2.5.

Coastal Water Temperatures

Place Temperature

Stations

Nearby Weather Stations

Station Location Temp. Windchill Dew Point Humidity Wind Precip. Elev Updated Type
                   
Tornado Watch
Statement as of 3:03 PM CDT on May 24, 2015

Tornado Watch 203 remains in effect until 800 PM CDT for the
following locations


MO
. Missouri counties included are

Adair Audrain Benton
Boone Callaway Camden
Chariton Christian Cole
Crawford Dallas Dent
Douglas Franklin Gasconade
Greene Hickory Howell
Iron Knox Laclede
Lewis Lincoln Macon
Maries Marion Miller
Moniteau Monroe Montgomery
Morgan Oregon Osage
Ozark Phelps Pike
Polk Pulaski Ralls
Randolph Reynolds Schuyler
Shannon Shelby stone
Taney Texas Warren
Washington Webster Wright